Weather History for Marysville, OH

Change the Weather History Date:

Friday, March 22, 2013

  Actual Average (KDLZ) Record (KDLZ)
Temperature  
Mean Temperature 30 °F -  
Max Temperature 40 °F 48 °F 83 °F (1938)
Min Temperature 19 °F 28 °F 13 °F (1959)
Degree Days  
Heating Degree Days 36    
Moisture  
Dew Point 17 °F    
Average Humidity 63    
Maximum Humidity 84    
Minimum Humidity 37    
Precipitation  
Precipitation 0.00 in - - ()
Sea Level Pressure  
Sea Level Pressure 30.00 in    
Wind  
Wind Speed 6 mph (WNW)    
Max Wind Speed 14 mph    
Max Gust Speed 20 mph    
Visibility 10 miles    
Events      
Averages and records for this station are not official NWS values.
T = Trace of Precipitation, MM = Missing Value Source: NWS Daily Summary

Daily Weather History Graph

Daily Weather History Graph

Search for Another Location

Airport:

Trip Planner

Search our weather history database for the weather conditions in past years. The results will help you decide how hot, cold, wet, or windy it might be!

Date:

Astronomy

Mar. 22, 2013 Rise Set
Actual Time 7:33 AM EDT 7:47 PM EDT
Civil Twilight 7:06 AM EDT 8:14 PM EDT
Nautical Twilight 6:34 AM EDT 8:46 PM EDT
Astronomical Twilight 6:01 AM EDT 9:19 PM EDT
Moon 3:13 PM EDT (3/22) 4:33 AM EDT (3/22)
Length of Visible Light 13h 08m
Length of Day
12h 14m
Waxing Gibbous, 77% of the Moon is Illuminated
Mar 22
Waxing Gibbous
Mar 27
Full
Apr 3
Last Quarter
Apr 10
New
Apr 18
First Quarter

Hourly Weather History & Observations

Time (EDT) Temp. Windchill Dew Point Humidity Pressure Visibility Wind Dir Wind Speed Gust Speed Precip Events Conditions
12:14 AM 24.3 °F 16.3 °F 17.6 °F 76% 29.97 in 10.0 mi West 6.9 mph - N/A   Clear
12:34 AM 23.9 °F 18.0 °F 17.1 °F 75% 29.97 in 10.0 mi West 4.6 mph - N/A   Clear
12:53 AM 23.0 °F 17.0 °F 16.7 °F 77% 29.97 in 10.0 mi West 4.6 mph - N/A   Clear
1:14 AM 23.0 °F 17.0 °F 16.5 °F 76% 29.97 in 10.0 mi West 4.6 mph - N/A   Clear
1:34 AM 23.0 °F 17.0 °F 16.5 °F 76% 29.97 in 10.0 mi West 4.6 mph - N/A   Clear
1:53 AM 23.0 °F 14.7 °F 16.0 °F 74% 29.97 in 10.0 mi WNW 6.9 mph - N/A   Clear
2:14 AM 22.8 °F 15.5 °F 15.8 °F 74% 29.97 in 10.0 mi WNW 5.8 mph - N/A   Clear
2:34 AM 22.5 °F 15.1 °F 15.8 °F 76% 29.98 in 10.0 mi WNW 5.8 mph - N/A   Clear
2:53 AM 21.9 °F 14.5 °F 15.4 °F 76% 29.97 in 10.0 mi WNW 5.8 mph - N/A   Clear
3:14 AM 21.9 °F 14.5 °F 15.8 °F 77% 29.98 in 10.0 mi WNW 5.8 mph - N/A   Clear
3:34 AM 21.6 °F 16.8 °F 16.0 °F 79% 29.98 in 10.0 mi West 3.5 mph - N/A   Clear
3:53 AM 21.2 °F 14.9 °F 15.8 °F 80% 29.98 in 10.0 mi West 4.6 mph - N/A   Clear
4:14 AM 20.3 °F 12.5 °F 14.9 °F 80% 29.98 in 10.0 mi WNW 5.8 mph - N/A   Clear
4:34 AM 21.0 °F 13.4 °F 15.4 °F 79% 29.98 in 10.0 mi West 5.8 mph - N/A   Clear
4:53 AM 20.8 °F 13.2 °F 15.6 °F 80% 29.98 in 10.0 mi WNW 5.8 mph - N/A   Clear
5:14 AM 20.8 °F 13.2 °F 14.9 °F 78% 29.98 in 10.0 mi WNW 5.8 mph - N/A   Clear
5:34 AM 20.7 °F 13.0 °F 14.9 °F 78% 29.99 in 10.0 mi WNW 5.8 mph - N/A   Clear
5:53 AM 20.3 °F 12.5 °F 14.9 °F 80% 29.99 in 10.0 mi WNW 5.8 mph - N/A   Clear
6:14 AM 20.5 °F 14.0 °F 14.7 °F 78% 30.00 in 10.0 mi WNW 4.6 mph - N/A   Clear
6:34 AM 20.1 °F 13.6 °F 14.5 °F 79% 30.00 in 10.0 mi WNW 4.6 mph - N/A   Clear
6:53 AM 20.7 °F 13.0 °F 14.4 °F 77% 30.00 in 10.0 mi NW 5.8 mph - N/A   Clear
7:14 AM 20.5 °F 14.0 °F 14.2 °F 77% 30.01 in 10.0 mi WNW 4.6 mph - N/A   Clear
7:34 AM 19.9 °F 13.4 °F 14.2 °F 78% 30.01 in 10.0 mi WNW 4.6 mph - N/A   Clear
7:53 AM 20.3 °F 12.5 °F 14.4 °F 78% 30.01 in 10.0 mi WNW 5.8 mph - N/A   Clear
8:14 AM 22.3 °F 14.9 °F 15.3 °F 74% 30.01 in 10.0 mi NW 5.8 mph - N/A   Clear
8:34 AM 23.7 °F 15.6 °F 15.8 °F 72% 30.01 in 10.0 mi NW 6.9 mph - N/A   Clear
8:53 AM 24.8 °F 16.1 °F 16.0 °F 69% 30.02 in 10.0 mi NNW 8.1 mph - N/A   Clear
9:14 AM 26.1 °F 17.6 °F 16.9 °F 68% 30.02 in 10.0 mi NNW 8.1 mph - N/A   Clear
9:34 AM 27.1 °F 17.5 °F 16.5 °F 64% 30.02 in 10.0 mi NNW 10.4 mph 17.3 mph N/A   Clear
9:53 AM 28.2 °F 18.3 °F 17.1 °F 63% 30.02 in 10.0 mi NNW 11.5 mph - N/A   Clear
10:14 AM 28.8 °F 22.6 °F 16.9 °F 61% 30.02 in 10.0 mi NNW 5.8 mph - N/A   Clear
10:34 AM 29.8 °F 21.5 °F 17.2 °F 59% 30.02 in 10.0 mi NNW 9.2 mph - N/A   Scattered Clouds
10:53 AM 30.2 °F 22.6 °F 17.4 °F 59% 30.02 in 10.0 mi NW 8.1 mph - N/A   Scattered Clouds
11:14 AM 30.9 °F 22.2 °F 17.4 °F 57% 30.02 in 10.0 mi NW 10.4 mph - N/A   Scattered Clouds
11:34 AM 31.8 °F 25.4 °F 17.2 °F 55% 30.02 in 10.0 mi West 6.9 mph - N/A   Scattered Clouds
11:53 AM 32.0 °F 27.5 °F 17.2 °F 55% 30.02 in 10.0 mi North 4.6 mph - N/A   Scattered Clouds
12:14 PM 32.9 °F 26.7 °F 18.5 °F 55% 30.02 in 10.0 mi NNW 6.9 mph - N/A   Clear
12:34 PM 33.8 °F 27.0 °F 17.8 °F 52% 30.03 in 10.0 mi NW 8.1 mph - N/A   Clear
12:53 PM 34.7 °F 28.8 °F 17.8 °F 50% 30.02 in 10.0 mi WNW 6.9 mph - N/A   Clear
1:14 PM 35.1 °F 27.9 °F 17.4 °F 49% 30.01 in 10.0 mi West 9.2 mph - N/A   Clear
1:34 PM 36.0 °F 28.0 °F 18.1 °F 48% 30.01 in 10.0 mi WNW 11.5 mph 16.1 mph N/A   Clear
1:53 PM 37.4 °F 30.8 °F 19.9 °F 49% 30.01 in 10.0 mi WNW 9.2 mph - N/A   Clear
2:14 PM 37.4 °F 30.8 °F 19.8 °F 49% 30.00 in 10.0 mi WSW 9.2 mph 19.6 mph N/A   Scattered Clouds
2:34 PM 37.4 °F 30.8 °F 18.5 °F 46% 30.00 in 10.0 mi NW 9.2 mph - N/A   Clear
2:53 PM 38.1 °F 31.2 °F 18.9 °F 46% 29.99 in 10.0 mi West 10.4 mph - N/A   Clear
3:14 PM 38.5 °F 32.1 °F 17.4 °F 43% 29.98 in 10.0 mi West 9.2 mph - N/A   Clear
3:34 PM 39.2 °F 32.5 °F 18.0 °F 42% 29.98 in 10.0 mi NW 10.4 mph 19.6 mph N/A   Clear
3:53 PM 39.6 °F 33.0 °F 18.1 °F 42% 29.98 in 10.0 mi WSW 10.4 mph - N/A   Clear
4:14 PM 39.7 °F 33.7 °F 16.0 °F 38% 29.97 in 10.0 mi WNW 9.2 mph 18.4 mph N/A   Clear
4:34 PM 40.3 °F 33.4 °F 17.1 °F 39% 29.97 in 10.0 mi NW 11.5 mph 18.4 mph N/A   Clear
4:53 PM 40.3 °F 33.9 °F 17.1 °F 39% 29.97 in 10.0 mi WSW 10.4 mph 17.3 mph N/A   Clear
5:14 PM 40.3 °F 32.6 °F 16.5 °F 38% 29.97 in 10.0 mi WNW 13.8 mph - N/A   Clear
5:34 PM 40.1 °F 34.1 °F 15.6 °F 37% 29.97 in 10.0 mi West 9.2 mph - N/A   Clear
5:54 PM 39.7 °F 32.7 °F 16.5 °F 39% 29.97 in 10.0 mi West 11.5 mph 17.3 mph N/A   Clear
6:14 PM 39.9 °F 33.4 °F 15.3 °F 37% 29.97 in 10.0 mi West 10.4 mph - N/A   Clear
6:34 PM 39.4 °F 33.2 °F 15.1 °F 37% 29.97 in 10.0 mi WNW 9.2 mph - N/A   Clear
6:54 PM 39.2 °F 34.2 °F 16.0 °F 39% 29.98 in 10.0 mi WNW 6.9 mph - N/A   Clear
7:14 PM 38.1 °F 31.2 °F 16.2 °F 41% 29.98 in 10.0 mi West 10.4 mph - N/A   Clear
7:33 PM 36.5 °F 31.8 °F 17.4 °F 46% 29.99 in 10.0 mi WNW 5.8 mph - N/A   Clear
7:54 PM 34.7 °F 30.6 °F 17.4 °F 49% 29.99 in 10.0 mi WNW 4.6 mph - N/A   Clear
8:14 PM 33.8 °F 29.6 °F 17.8 °F 52% 30.00 in 10.0 mi WNW 4.6 mph - N/A   Clear
8:33 PM 32.0 °F 27.5 °F 19.4 °F 60% 30.00 in 10.0 mi West 4.6 mph - N/A   Clear
8:54 PM 30.2 °F 26.7 °F 19.4 °F 64% 30.01 in 10.0 mi West 3.5 mph - N/A   Clear
9:14 PM 28.8 °F 25.0 °F 20.8 °F 72% 30.01 in 10.0 mi West 3.5 mph - N/A   Clear
9:33 PM 28.0 °F 22.8 °F 21.4 °F 76% 30.02 in 10.0 mi West 4.6 mph - N/A   Clear
9:54 PM 27.3 °F - 20.8 °F 77% 30.02 in 10.0 mi Calm Calm - N/A   Clear
10:14 PM 28.9 °F - 20.1 °F 70% 30.01 in 10.0 mi Calm Calm - N/A   Clear
10:33 PM 27.1 °F - 21.6 °F 80% 30.02 in 10.0 mi Calm Calm - N/A   Clear
10:54 PM 27.3 °F - 21.9 °F 80% 30.01 in 10.0 mi Calm Calm - N/A   Clear
11:14 PM 26.6 °F 22.6 °F 21.0 °F 79% 30.01 in 10.0 mi WSW 3.5 mph - N/A   Clear
11:33 PM 25.5 °F 21.3 °F 20.8 °F 82% 30.01 in 10.0 mi WSW 3.5 mph - N/A   Clear
11:54 PM 25.2 °F 20.9 °F 20.8 °F 84% 30.02 in 10.0 mi WSW 3.5 mph - N/A   Clear